Time,TemperatureF,DewpointF,PressureIn,WindDirection,WindDirectionDegrees,WindSpeedMPH,WindSpeedGustMPH,Humidity,HourlyPrecipIn,Conditions,Clouds,dailyrainin,SoftwareType,DateUTC
2013-09-04 00:00:00,76.3,63.7,27.20,NE,53,0.0,0.0,65,0.00,,---,0.47,VWS V13.01,2013-09-04 07:00:00,
2013-09-04 00:05:00,75.9,63.8,27.20,NE,53,0.0,0.0,66,0.00,,---,0.00,VWS V13.01,2013-09-04 07:05:00,
2013-09-04 00:10:00,75.7,63.2,27.20,NE,53,0.0,0.0,65,0.00,,---,0.00,VWS V13.01,2013-09-04 07:10:00,
2013-09-04 00:15:00,75.7,63.2,27.20,NE,53,0.0,0.0,65,0.00,,---,0.00,VWS V13.01,2013-09-04 07:15:00,
2013-09-04 00:20:00,75.9,62.9,27.17,NE,53,0.0,0.0,64,0.00,,---,0.00,VWS V13.01,2013-09-04 07:20:00,
2013-09-04 00:25:00,75.7,62.7,27.17,NE,53,0.0,0.0,64,0.00,,---,0.00,VWS V13.01,2013-09-04 07:25:00,
2013-09-04 00:31:00,75.7,62.7,27.17,NE,53,0.0,0.0,64,0.00,,---,0.00,VWS V13.01,2013-09-04 07:31:00,
2013-09-04 00:36:00,75.7,62.7,27.17,NE,53,0.0,0.0,64,0.00,,---,0.00,VWS V13.01,2013-09-04 07:36:00,
2013-09-04 00:41:00,75.7,62.7,27.17,NE,53,0.0,0.0,64,0.00,,---,0.00,VWS V13.01,2013-09-04 07:41:00,
2013-09-04 00:46:00,75.7,62.7,27.17,East,88,0.0,0.0,64,0.00,,---,0.00,VWS V13.01,2013-09-04 07:46:00,
2013-09-04 00:51:00,75.6,62.5,27.17,East,88,3.6,4.0,64,0.00,,---,0.00,VWS V13.01,2013-09-04 07:51:00,
2013-09-04 00:56:00,75.6,63.0,27.17,East,88,0.0,0.0,65,0.00,,---,0.00,VWS V13.01,2013-09-04 07:56:00,
2013-09-04 01:01:00,75.4,63.2,27.17,East,88,0.0,0.0,66,0.00,,---,0.00,VWS V13.01,2013-09-04 08:01:00,
2013-09-04 01:06:00,75.2,63.5,27.17,East,88,0.0,3.1,67,0.00,,---,0.00,VWS V13.01,2013-09-04 08:06:00,
2013-09-04 01:12:00,75.0,63.3,27.17,East,88,0.0,0.0,67,0.00,,---,0.00,VWS V13.01,2013-09-04 08:12:00,
2013-09-04 01:17:00,74.8,63.6,27.17,East,88,0.0,0.0,68,0.00,,---,0.00,VWS V13.01,2013-09-04 08:17:00,
2013-09-04 01:22:00,74.7,63.4,27.17,East,88,0.0,0.0,68,0.00,,---,0.00,VWS V13.01,2013-09-04 08:22:00,
2013-09-04 01:27:00,74.5,63.2,27.17,East,88,0.0,0.0,68,0.00,,---,0.00,VWS V13.01,2013-09-04 08:27:00,
2013-09-04 01:33:00,74.5,62.4,27.17,East,89,0.0,0.0,66,0.00,,---,0.00,VWS V13.01,2013-09-04 08:33:00,
2013-09-04 01:38:00,74.5,62.4,27.17,East,93,2.7,4.0,66,0.00,,---,0.00,VWS V13.01,2013-09-04 08:38:00,
2013-09-04 01:43:00,74.5,62.0,27.17,East,95,3.1,5.4,65,0.00,,---,0.00,VWS V13.01,2013-09-04 08:43:00,
2013-09-04 01:49:00,74.5,62.0,27.17,East,90,2.7,8.1,65,0.00,,---,0.00,VWS V13.01,2013-09-04 08:49:00,
2013-09-04 01:54:00,74.5,62.4,27.17,East,95,2.2,4.0,66,0.00,,---,0.00,VWS V13.01,2013-09-04 08:54:00,
2013-09-04 01:59:00,74.5,62.4,27.17,East,96,4.9,6.3,66,0.00,,---,0.00,VWS V13.01,2013-09-04 08:59:00,
2013-09-04 02:04:00,74.5,62.8,27.17,East,94,2.7,4.0,67,0.00,,---,0.00,VWS V13.01,2013-09-04 09:04:00,
2013-09-04 02:09:00,74.3,62.6,27.17,East,92,0.0,0.0,67,0.00,,---,0.00,VWS V13.01,2013-09-04 09:09:00,
2013-09-04 02:14:00,74.1,62.9,27.17,East,92,0.0,0.0,68,0.00,,---,0.00,VWS V13.01,2013-09-04 09:14:00,
2013-09-04 02:20:00,74.1,63.3,27.17,East,92,0.0,0.0,69,0.00,,---,0.00,VWS V13.01,2013-09-04 09:20:00,
2013-09-04 02:25:00,73.8,63.0,27.17,East,92,0.0,0.0,69,0.00,,---,0.00,VWS V13.01,2013-09-04 09:25:00,
2013-09-04 02:30:00,73.8,63.0,27.17,East,92,0.0,0.0,69,0.00,,---,0.00,VWS V13.01,2013-09-04 09:30:00,
2013-09-04 02:35:00,73.8,62.5,27.17,East,92,0.0,2.7,68,0.00,,---,0.00,VWS V13.01,2013-09-04 09:35:00,
2013-09-04 02:40:00,73.8,62.5,27.17,East,99,2.2,4.0,68,0.00,,---,0.00,VWS V13.01,2013-09-04 09:40:00,
2013-09-04 02:45:00,73.8,62.5,27.17,East,99,0.0,0.0,68,0.00,,---,0.00,VWS V13.01,2013-09-04 09:45:00,
2013-09-04 02:50:00,73.6,62.8,27.17,East,98,2.7,4.0,69,0.00,,---,0.00,VWS V13.01,2013-09-04 09:50:00,
2013-09-04 02:56:00,73.6,62.8,27.17,East,98,0.0,0.0,69,0.00,,---,0.00,VWS V13.01,2013-09-04 09:56:00,
2013-09-04 03:01:00,73.4,62.2,27.17,East,98,0.0,0.0,68,0.00,,---,0.00,VWS V13.01,2013-09-04 10:01:00,
2013-09-04 03:06:00,73.2,62.9,27.17,East,98,0.0,0.0,70,0.00,,---,0.00,VWS V13.01,2013-09-04 10:06:00,
2013-09-04 03:11:00,73.2,62.9,27.17,East,98,0.0,0.0,70,0.00,,---,0.00,VWS V13.01,2013-09-04 10:11:00,
2013-09-04 03:16:00,73.0,62.3,27.17,East,98,0.0,0.0,69,0.00,,---,0.00,VWS V13.01,2013-09-04 10:16:00,
2013-09-04 03:21:00,72.9,62.9,27.17,East,98,0.0,0.0,71,0.00,,---,0.00,VWS V13.01,2013-09-04 10:21:00,
2013-09-04 03:27:00,72.5,63.4,27.17,East,98,0.0,0.0,73,0.00,,---,0.00,VWS V13.01,2013-09-04 10:27:00,
2013-09-04 03:32:00,72.3,63.6,27.17,East,98,0.0,0.0,74,0.00,,---,0.00,VWS V13.01,2013-09-04 10:32:00,
2013-09-04 03:37:00,72.1,63.4,27.17,East,98,0.0,0.0,74,0.00,,---,0.00,VWS V13.01,2013-09-04 10:37:00,
2013-09-04 03:42:00,72.1,63.4,27.17,East,98,0.0,0.0,74,0.00,,---,0.00,VWS V13.01,2013-09-04 10:42:00,
2013-09-04 03:48:00,72.1,63.8,27.17,East,98,0.0,0.0,75,0.00,,---,0.00,VWS V13.01,2013-09-04 10:48:00,
2013-09-04 03:53:00,72.0,64.0,27.17,East,97,0.0,4.0,76,0.00,,---,0.00,VWS V13.01,2013-09-04 10:53:00,
2013-09-04 03:58:00,72.0,64.0,27.17,East,97,0.0,0.0,76,0.00,,---,0.00,VWS V13.01,2013-09-04 10:58:00,
2013-09-04 04:03:00,72.0,64.0,27.17,East,97,0.0,0.0,76,0.00,,---,0.00,VWS V13.01,2013-09-04 11:03:00,
2013-09-04 04:08:00,72.0,63.6,27.17,East,97,0.0,0.0,75,0.00,,---,0.00,VWS V13.01,2013-09-04 11:08:00,
2013-09-04 04:13:00,71.8,63.8,27.17,East,97,0.0,0.0,76,0.00,,---,0.00,VWS V13.01,2013-09-04 11:13:00,
2013-09-04 04:19:00,71.6,63.6,27.17,East,97,0.0,0.0,76,0.00,,---,0.00,VWS V13.01,2013-09-04 11:19:00,
2013-09-04 04:24:00,71.8,63.4,27.17,East,97,0.0,0.0,75,0.00,,---,0.00,VWS V13.01,2013-09-04 11:24:00,
2013-09-04 04:29:00,71.6,62.9,27.17,East,97,0.0,0.0,74,0.00,,---,0.00,VWS V13.01,2013-09-04 11:29:00,
2013-09-04 04:34:00,71.4,63.5,27.17,East,97,0.0,0.0,76,0.00,,---,0.00,VWS V13.01,2013-09-04 11:34:00,
2013-09-04 04:39:00,71.2,63.7,27.17,East,97,0.0,0.0,77,0.00,,---,0.00,VWS V13.01,2013-09-04 11:39:00,
2013-09-04 04:44:00,71.1,63.9,27.17,East,97,0.0,0.0,78,0.00,,---,0.00,VWS V13.01,2013-09-04 11:44:00,
2013-09-04 04:50:00,70.9,64.1,27.17,East,97,0.0,0.0,79,0.00,,---,0.00,VWS V13.01,2013-09-04 11:50:00,
2013-09-04 04:55:00,70.9,64.1,27.17,East,97,0.0,0.0,79,0.00,,---,0.00,VWS V13.01,2013-09-04 11:55:00,
2013-09-04 05:00:00,70.7,63.9,27.17,East,97,0.0,0.0,79,0.00,,---,0.00,VWS V13.01,2013-09-04 12:00:00,
2013-09-04 05:05:00,70.7,64.2,27.17,East,97,0.0,0.0,80,0.00,,---,0.00,VWS V13.01,2013-09-04 12:05:00,
2013-09-04 05:11:00,70.5,64.1,27.17,East,97,0.0,0.0,80,0.00,,---,0.00,VWS V13.01,2013-09-04 12:11:00,
2013-09-04 05:16:00,70.7,64.2,27.17,East,97,0.0,0.0,80,0.00,,---,0.00,VWS V13.01,2013-09-04 12:16:00,
2013-09-04 05:21:00,70.7,64.2,27.17,East,97,0.0,0.0,80,0.00,,---,0.00,VWS V13.01,2013-09-04 12:21:00,
2013-09-04 05:26:00,70.7,63.9,27.17,East,97,0.0,0.0,79,0.00,,---,0.00,VWS V13.01,2013-09-04 12:26:00,
2013-09-04 05:31:00,70.7,63.5,27.17,East,97,0.0,0.0,78,0.00,,---,0.00,VWS V13.01,2013-09-04 12:31:00,
2013-09-04 05:36:00,70.9,63.0,27.17,East,97,0.0,0.0,76,0.00,,---,0.00,VWS V13.01,2013-09-04 12:36:00,
2013-09-04 05:41:00,71.1,62.7,27.17,East,97,0.0,0.0,75,0.00,,---,0.00,VWS V13.01,2013-09-04 12:41:00,
2013-09-04 05:46:00,70.9,62.6,27.17,East,97,0.0,0.0,75,0.00,,---,0.00,VWS V13.01,2013-09-04 12:46:00,
2013-09-04 05:51:00,70.7,62.4,27.17,East,97,0.0,0.0,75,0.00,,---,0.00,VWS V13.01,2013-09-04 12:51:00,
2013-09-04 05:57:00,70.5,62.6,27.17,East,97,0.0,0.0,76,0.00,,---,0.00,VWS V13.01,2013-09-04 12:57:00,
2013-09-04 06:02:00,70.5,62.6,27.17,East,97,0.0,0.0,76,0.00,,---,0.00,VWS V13.01,2013-09-04 13:02:00,
2013-09-04 06:07:00,70.5,62.6,27.20,East,97,0.0,0.0,76,0.00,,---,0.00,VWS V13.01,2013-09-04 13:07:00,
2013-09-04 06:13:00,70.3,62.8,27.20,East,97,0.0,0.0,77,0.00,,---,0.00,VWS V13.01,2013-09-04 13:13:00,
2013-09-04 06:18:00,70.3,63.2,27.20,East,97,0.0,0.0,78,0.00,,---,0.00,VWS V13.01,2013-09-04 13:18:00,
2013-09-04 06:23:00,70.3,63.5,27.20,East,97,0.0,0.0,79,0.00,,---,0.00,VWS V13.01,2013-09-04 13:23:00,
2013-09-04 06:28:00,70.3,63.5,27.20,East,97,0.0,0.0,79,0.00,,---,0.00,VWS V13.01,2013-09-04 13:28:00,
2013-09-04 06:33:00,70.3,63.5,27.20,East,97,0.0,0.0,79,0.00,,---,0.00,VWS V13.01,2013-09-04 13:33:00,
2013-09-04 06:38:00,70.5,63.7,27.20,East,97,0.0,0.0,79,0.00,,---,0.00,VWS V13.01,2013-09-04 13:38:00,
2013-09-04 06:44:00,70.7,63.9,27.20,East,97,0.0,0.0,79,0.00,,---,0.00,VWS V13.01,2013-09-04 13:44:00,
2013-09-04 06:49:00,71.1,64.2,27.20,East,97,0.0,0.0,79,0.00,,---,0.00,VWS V13.01,2013-09-04 13:49:00,
2013-09-04 06:54:00,71.4,64.6,27.20,East,97,0.0,0.0,79,0.00,,---,0.00,VWS V13.01,2013-09-04 13:54:00,
2013-09-04 06:59:00,71.6,64.4,27.20,East,97,0.0,0.0,78,0.00,,---,0.00,VWS V13.01,2013-09-04 13:59:00,
2013-09-04 07:04:00,72.0,64.4,27.20,East,97,0.0,0.0,77,0.00,,---,0.00,VWS V13.01,2013-09-04 14:04:00,
2013-09-04 07:09:00,72.3,64.7,27.20,East,97,0.0,0.0,77,0.00,,---,0.00,VWS V13.01,2013-09-04 14:09:00,
2013-09-04 07:14:00,72.7,65.1,27.20,East,97,0.0,0.0,77,0.00,,---,0.00,VWS V13.01,2013-09-04 14:14:00,
2013-09-04 07:20:00,73.2,64.8,27.20,East,97,0.0,0.0,75,0.00,,---,0.00,VWS V13.01,2013-09-04 14:20:00,
2013-09-04 07:25:00,73.8,64.6,27.20,East,97,0.0,0.0,73,0.00,,---,0.00,VWS V13.01,2013-09-04 14:25:00,
2013-09-04 07:30:00,74.5,64.5,27.20,East,97,0.0,0.0,71,0.00,,---,0.00,VWS V13.01,2013-09-04 14:30:00,
2013-09-04 07:36:00,75.4,65.3,27.20,East,95,0.0,0.0,71,0.00,,---,0.00,VWS V13.01,2013-09-04 14:36:00,
2013-09-04 07:41:00,75.9,65.8,27.20,East,95,0.0,0.0,71,0.00,,---,0.00,VWS V13.01,2013-09-04 14:41:00,
2013-09-04 07:46:00,76.3,66.2,27.20,East,95,0.0,0.0,71,0.00,,---,0.00,VWS V13.01,2013-09-04 14:46:00,
2013-09-04 07:51:00,76.8,66.3,27.20,East,95,0.0,0.0,70,0.00,,---,0.00,VWS V13.01,2013-09-04 14:51:00,
2013-09-04 07:57:00,77.4,66.4,27.20,East,95,0.0,0.0,69,0.00,,---,0.00,VWS V13.01,2013-09-04 14:57:00,
2013-09-04 08:02:00,77.9,66.5,27.20,East,95,0.0,0.0,68,0.00,,---,0.00,VWS V13.01,2013-09-04 15:02:00,
2013-09-04 08:07:00,78.3,66.4,27.20,East,95,0.0,0.0,67,0.00,,---,0.00,VWS V13.01,2013-09-04 15:07:00,
2013-09-04 08:12:00,78.8,66.5,27.20,East,95,0.0,0.0,66,0.00,,---,0.00,VWS V13.01,2013-09-04 15:12:00,
2013-09-04 08:18:00,79.5,67.2,27.20,East,95,0.0,0.0,66,0.00,,---,0.00,VWS V13.01,2013-09-04 15:18:00,
2013-09-04 08:23:00,79.9,66.6,27.20,East,95,0.0,0.0,64,0.00,,---,0.00,VWS V13.01,2013-09-04 15:23:00,
2013-09-04 08:28:00,80.2,66.1,27.20,East,95,0.0,0.0,62,0.00,,---,0.00,VWS V13.01,2013-09-04 15:28:00,
2013-09-04 08:33:00,80.6,65.0,27.20,East,95,0.0,0.0,59,0.00,,---,0.00,VWS V13.01,2013-09-04 15:33:00,
2013-09-04 08:38:00,81.1,64.5,27.23,East,95,0.0,0.0,57,0.00,,---,0.00,VWS V13.01,2013-09-04 15:38:00,
2013-09-04 08:43:00,81.7,64.5,27.23,East,95,0.0,0.0,56,0.00,,---,0.00,VWS V13.01,2013-09-04 15:43:00,
2013-09-04 08:49:00,81.9,64.1,27.23,East,93,0.0,0.0,55,0.00,,---,0.00,VWS V13.01,2013-09-04 15:49:00,
2013-09-04 08:54:00,82.4,64.1,27.23,East,92,0.0,4.0,54,0.00,,---,0.00,VWS V13.01,2013-09-04 15:54:00,
2013-09-04 08:59:00,82.9,64.1,27.23,WNW,299,2.2,5.4,53,0.00,,---,0.00,VWS V13.01,2013-09-04 15:59:00,
2013-09-04 09:05:00,83.5,63.5,27.23,NNW,347,2.7,4.0,51,0.00,,---,0.00,VWS V13.01,2013-09-04 16:05:00,
2013-09-04 09:10:00,83.8,63.2,27.23,North,349,4.5,4.5,50,0.00,,---,0.00,VWS V13.01,2013-09-04 16:10:00,
2013-09-04 09:15:00,84.0,62.8,27.23,NW,324,0.0,0.0,49,0.00,,---,0.00,VWS V13.01,2013-09-04 16:15:00,
2013-09-04 09:20:00,84.6,62.7,27.23,NNW,341,0.0,0.0,48,0.00,,---,0.00,VWS V13.01,2013-09-04 16:20:00,
2013-09-04 09:25:00,85.1,62.6,27.23,NNW,340,0.0,0.0,47,0.00,,---,0.00,VWS V13.01,2013-09-04 16:25:00,
2013-09-04 09:30:00,85.5,62.3,27.23,NNW,331,0.0,0.0,46,0.00,,---,0.00,VWS V13.01,2013-09-04 16:30:00,
2013-09-04 09:35:00,86.0,62.2,27.23,NNW,345,0.0,0.0,45,0.00,,---,0.00,VWS V13.01,2013-09-04 16:35:00,
2013-09-04 09:41:00,86.2,62.4,27.23,NW,313,0.0,0.0,45,0.00,,---,0.00,VWS V13.01,2013-09-04 16:41:00,
2013-09-04 09:46:00,86.7,62.2,27.23,NW,308,0.0,0.0,44,0.00,,---,0.00,VWS V13.01,2013-09-04 16:46:00,
2013-09-04 09:51:00,87.1,62.5,27.23,NNE,27,0.0,0.0,44,0.00,,---,0.00,VWS V13.01,2013-09-04 16:51:00,
2013-09-04 09:57:00,87.8,63.2,27.23,NNE,27,0.0,0.0,44,0.00,,---,0.00,VWS V13.01,2013-09-04 16:57:00,
2013-09-04 10:02:00,88.7,63.3,27.23,NNE,24,0.0,3.6,43,0.00,,---,0.00,VWS V13.01,2013-09-04 17:02:00,
2013-09-04 10:07:00,89.4,63.3,27.23,NNE,24,0.0,0.0,42,0.00,,---,0.00,VWS V13.01,2013-09-04 17:07:00,
2013-09-04 10:13:00,89.8,62.3,27.23,North,7,0.0,4.0,40,0.00,,---,0.00,VWS V13.01,2013-09-04 17:13:00,
2013-09-04 10:18:00,90.3,62.7,27.23,NNE,15,0.0,0.0,40,0.00,,---,0.00,VWS V13.01,2013-09-04 17:18:00,
2013-09-04 10:23:00,90.7,62.3,27.23,ENE,65,3.1,4.0,39,0.00,,---,0.00,VWS V13.01,2013-09-04 17:23:00,
2013-09-04 10:28:00,91.2,62.1,27.23,North,357,0.0,6.3,38,0.00,,---,0.00,VWS V13.01,2013-09-04 17:28:00,
2013-09-04 10:33:00,91.9,62.0,27.23,NNE,16,4.0,5.4,37,0.00,,---,0.00,VWS V13.01,2013-09-04 17:33:00,
2013-09-04 10:38:00,92.5,61.7,27.20,NNE,14,0.0,0.0,36,0.00,,---,0.00,VWS V13.01,2013-09-04 17:38:00,
2013-09-04 10:44:00,92.3,61.5,27.20,ESE,105,2.7,2.7,36,0.00,,---,0.00,VWS V13.01,2013-09-04 17:44:00,
2013-09-04 10:49:00,92.8,61.2,27.20,NNE,20,0.0,0.0,35,0.00,,---,0.00,VWS V13.01,2013-09-04 17:49:00,
2013-09-04 10:54:00,93.0,60.5,27.20,North,358,0.0,0.0,34,0.00,,---,0.00,VWS V13.01,2013-09-04 17:54:00,
2013-09-04 10:59:00,93.0,59.7,27.20,NNW,331,0.0,0.0,33,0.00,,---,0.00,VWS V13.01,2013-09-04 17:59:00,
2013-09-04 11:05:00,93.4,60.0,27.20,NW,306,0.0,3.6,33,0.00,,---,0.00,VWS V13.01,2013-09-04 18:05:00,
2013-09-04 11:10:00,93.9,61.3,27.20,ENE,76,4.0,5.4,34,0.00,,---,0.00,VWS V13.01,2013-09-04 18:10:00,
2013-09-04 11:15:00,94.5,61.8,27.20,ENE,57,0.0,3.6,34,0.00,,---,0.00,VWS V13.01,2013-09-04 18:15:00,
2013-09-04 11:21:00,94.6,60.2,27.20,North,353,3.6,3.6,32,0.00,,---,0.00,VWS V13.01,2013-09-04 18:21:00,
2013-09-04 11:26:00,94.5,60.1,27.20,North,353,0.0,0.0,32,0.00,,---,0.00,VWS V13.01,2013-09-04 18:26:00,
2013-09-04 11:31:00,94.6,59.3,27.20,NE,49,0.0,3.1,31,0.00,,---,0.00,VWS V13.01,2013-09-04 18:31:00,
2013-09-04 11:36:00,95.0,59.7,27.20,NNE,15,2.7,2.7,31,0.00,,---,0.00,VWS V13.01,2013-09-04 18:36:00,
2013-09-04 11:42:00,95.5,60.1,27.20,NE,44,4.9,5.4,31,0.00,,---,0.00,VWS V13.01,2013-09-04 18:42:00,
2013-09-04 11:47:00,95.9,59.5,27.20,NE,44,3.6,4.0,30,0.00,,---,0.00,VWS V13.01,2013-09-04 18:47:00,
2013-09-04 11:52:00,96.3,60.7,27.20,East,91,0.0,3.1,31,0.00,,---,0.00,VWS V13.01,2013-09-04 18:52:00,
2013-09-04 11:58:00,96.6,60.1,27.20,East,81,0.0,0.0,30,0.00,,---,0.00,VWS V13.01,2013-09-04 18:58:00,
2013-09-04 12:03:00,97.2,59.6,27.20,East,95,11.9,11.9,29,0.00,,---,0.00,VWS V13.01,2013-09-04 19:03:00,
2013-09-04 12:08:00,97.9,59.3,27.20,East,99,10.1,10.1,28,0.00,,---,0.00,VWS V13.01,2013-09-04 19:08:00,
2013-09-04 12:13:00,98.2,59.6,27.20,SE,133,5.4,8.7,28,0.00,,---,0.00,VWS V13.01,2013-09-04 19:13:00,
2013-09-04 12:18:00,98.6,59.9,27.20,ESE,105,5.8,10.5,28,0.00,,---,0.00,VWS V13.01,2013-09-04 19:18:00,
2013-09-04 12:23:00,99.0,59.2,27.17,ESE,102,7.6,7.6,27,0.00,,---,0.00,VWS V13.01,2013-09-04 19:23:00,
2013-09-04 12:29:00,99.0,59.2,27.17,East,100,7.6,8.1,27,0.00,,---,0.00,VWS V13.01,2013-09-04 19:29:00,
2013-09-04 12:34:00,99.1,59.3,27.17,ENE,69,5.4,9.6,27,0.00,,---,0.00,VWS V13.01,2013-09-04 19:34:00,
2013-09-04 12:39:00,99.3,59.5,27.17,East,90,10.5,10.5,27,0.00,,---,0.00,VWS V13.01,2013-09-04 19:39:00,
2013-09-04 12:45:00,99.3,59.5,27.17,East,91,5.8,6.3,27,0.00,,---,0.00,VWS V13.01,2013-09-04 19:45:00,
2013-09-04 12:50:00,99.9,59.9,27.17,ENE,76,6.7,8.7,27,0.00,,---,0.00,VWS V13.01,2013-09-04 19:50:00,
2013-09-04 12:55:00,99.9,59.9,27.17,East,84,5.8,7.6,27,0.00,,---,0.00,VWS V13.01,2013-09-04 19:55:00,
2013-09-04 13:00:00,99.9,59.9,27.17,ENE,78,5.8,8.7,27,0.00,,---,0.00,VWS V13.01,2013-09-04 20:00:00,
2013-09-04 13:05:00,99.9,59.9,27.17,East,80,3.1,8.7,27,0.00,,---,0.00,VWS V13.01,2013-09-04 20:05:00,
2013-09-04 13:10:00,99.1,59.3,27.17,East,100,3.1,6.3,27,0.00,,---,0.00,VWS V13.01,2013-09-04 20:10:00,
2013-09-04 13:15:00,98.6,58.9,27.17,East,91,3.6,5.4,27,0.00,,---,0.00,VWS V13.01,2013-09-04 20:15:00,
2013-09-04 13:20:00,98.2,58.6,27.17,ENE,59,4.9,7.2,27,0.00,,---,0.00,VWS V13.01,2013-09-04 20:20:00,
2013-09-04 13:26:00,97.7,58.1,27.17,NE,41,3.6,5.4,27,0.00,,---,0.00,VWS V13.01,2013-09-04 20:26:00,
2013-09-04 13:31:00,97.3,57.8,27.17,NNE,18,0.0,3.6,27,0.00,,---,0.00,VWS V13.01,2013-09-04 20:31:00,
2013-09-04 13:36:00,97.0,57.5,27.17,NE,49,4.0,6.3,27,0.00,,---,0.00,VWS V13.01,2013-09-04 20:36:00,
2013-09-04 13:41:00,96.6,58.2,27.17,East,101,0.0,4.0,28,0.00,,---,0.00,VWS V13.01,2013-09-04 20:41:00,
2013-09-04 13:47:00,97.2,57.6,27.17,East,101,0.0,0.0,27,0.00,,---,0.00,VWS V13.01,2013-09-04 20:47:00,
2013-09-04 13:52:00,97.9,58.2,27.14,North,357,3.6,4.9,27,0.00,,---,0.00,VWS V13.01,2013-09-04 20:52:00,
2013-09-04 13:57:00,98.1,58.4,27.14,NE,40,3.6,6.3,27,0.00,,---,0.00,VWS V13.01,2013-09-04 20:57:00,
2013-09-04 14:03:00,97.7,57.0,27.14,NNE,29,2.2,5.4,26,0.00,,---,0.00,VWS V13.01,2013-09-04 21:03:00,
2013-09-04 14:08:00,97.5,56.9,27.14,NE,49,4.0,9.6,26,0.00,,---,0.00,VWS V13.01,2013-09-04 21:08:00,
2013-09-04 14:13:00,97.0,56.4,27.14,NNE,20,0.0,4.0,26,0.00,,---,0.00,VWS V13.01,2013-09-04 21:13:00,
2013-09-04 14:18:00,96.6,57.2,27.14,NE,34,4.0,4.9,27,0.00,,---,0.00,VWS V13.01,2013-09-04 21:18:00,
2013-09-04 14:24:00,96.3,56.9,27.14,NNE,28,2.2,5.8,27,0.00,,---,0.00,VWS V13.01,2013-09-04 21:24:00,
2013-09-04 14:29:00,95.9,56.6,27.14,NE,38,0.0,0.0,27,0.00,,---,0.00,VWS V13.01,2013-09-04 21:29:00,
2013-09-04 14:34:00,95.9,56.6,27.14,NE,40,2.2,3.1,27,0.00,,---,0.00,VWS V13.01,2013-09-04 21:34:00,
2013-09-04 14:40:00,95.5,56.3,27.14,NNE,16,0.0,3.1,27,0.00,,---,0.00,VWS V13.01,2013-09-04 21:40:00,
2013-09-04 14:45:00,95.4,56.1,27.14,NE,51,0.0,3.6,27,0.00,,---,0.00,VWS V13.01,2013-09-04 21:45:00,
2013-09-04 14:50:00,95.2,56.0,27.14,ESE,102,2.7,5.8,27,0.00,,---,0.00,VWS V13.01,2013-09-04 21:50:00,
2013-09-04 14:55:00,95.0,55.8,27.14,ENE,65,0.0,4.0,27,0.00,,---,0.00,VWS V13.01,2013-09-04 21:55:00,
2013-09-04 15:01:00,95.7,56.4,27.14,ENE,65,0.0,3.1,27,0.00,,---,0.00,VWS V13.01,2013-09-04 22:01:00,
2013-09-04 15:06:00,96.1,56.7,27.14,East,85,2.7,4.0,27,0.00,,---,0.00,VWS V13.01,2013-09-04 22:06:00,
2013-09-04 15:11:00,96.4,57.0,27.14,ENE,76,0.0,0.0,27,0.00,,---,0.00,VWS V13.01,2013-09-04 22:11:00,
2013-09-04 15:17:00,97.0,56.4,27.14,ENE,71,0.0,3.1,26,0.00,,---,0.00,VWS V13.01,2013-09-04 22:17:00,
2013-09-04 15:22:00,97.9,57.2,27.11,ENE,57,4.9,6.3,26,0.00,,---,0.00,VWS V13.01,2013-09-04 22:22:00,
2013-09-04 15:27:00,98.4,57.7,27.11,ENE,78,5.4,9.2,26,0.00,,---,0.00,VWS V13.01,2013-09-04 22:27:00,
2013-09-04 15:32:00,98.8,56.9,27.11,ENE,62,3.6,7.2,25,0.00,,---,0.00,VWS V13.01,2013-09-04 22:32:00,
2013-09-04 15:38:00,98.4,57.7,27.11,ENE,72,8.1,12.3,26,0.00,,---,0.00,VWS V13.01,2013-09-04 22:38:00,
2013-09-04 15:43:00,99.0,58.1,27.11,ENE,73,7.6,7.6,26,0.00,,---,0.00,VWS V13.01,2013-09-04 22:43:00,
2013-09-04 15:48:00,98.8,56.9,27.11,NE,34,3.1,6.3,25,0.00,,---,0.00,VWS V13.01,2013-09-04 22:48:00,
2013-09-04 15:54:00,98.2,57.5,27.11,ENE,66,7.6,7.6,26,0.00,,---,0.00,VWS V13.01,2013-09-04 22:54:00,
2013-09-04 15:59:00,98.1,57.4,27.11,ENE,66,4.9,4.9,26,0.00,,---,0.00,VWS V13.01,2013-09-04 22:59:00,
2013-09-04 16:04:00,97.9,57.2,27.11,ENE,73,8.1,9.2,26,0.00,,---,0.00,VWS V13.01,2013-09-04 23:04:00,
2013-09-04 16:10:00,97.3,56.8,27.11,ENE,66,4.5,8.1,26,0.00,,---,0.00,VWS V13.01,2013-09-04 23:10:00,
2013-09-04 16:15:00,97.0,56.4,27.11,NE,49,4.9,5.8,26,0.00,,---,0.00,VWS V13.01,2013-09-04 23:15:00,
2013-09-04 16:20:00,96.8,56.3,27.11,ENE,76,3.6,5.8,26,0.00,,---,0.00,VWS V13.01,2013-09-04 23:20:00,
2013-09-04 16:25:00,96.6,56.1,27.11,East,82,5.8,8.1,26,0.00,,---,0.00,VWS V13.01,2013-09-04 23:25:00,
2013-09-04 16:31:00,96.8,56.3,27.11,NE,50,4.0,8.1,26,0.00,,---,0.00,VWS V13.01,2013-09-04 23:31:00,
2013-09-04 16:36:00,97.0,56.4,27.11,ENE,63,8.1,8.1,26,0.00,,---,0.00,VWS V13.01,2013-09-04 23:36:00,
2013-09-04 16:41:00,96.6,56.1,27.11,ENE,67,5.8,5.8,26,0.00,,---,0.00,VWS V13.01,2013-09-04 23:41:00,
2013-09-04 16:47:00,96.1,55.7,27.11,East,85,4.9,6.3,26,0.00,,---,0.00,VWS V13.01,2013-09-04 23:47:00,
2013-09-04 16:52:00,95.7,55.4,27.11,ENE,60,5.8,8.1,26,0.00,,---,0.00,VWS V13.01,2013-09-04 23:52:00,
2013-09-04 16:57:00,95.9,55.5,27.11,ENE,74,5.4,6.3,26,0.00,,---,0.00,VWS V13.01,2013-09-04 23:57:00,
2013-09-04 17:02:00,96.3,55.8,27.11,East,82,4.0,8.1,26,0.00,,---,0.00,VWS V13.01,2013-09-05 00:02:00,
2013-09-04 17:07:00,96.4,56.0,27.11,East,85,8.1,8.1,26,0.00,,---,0.00,VWS V13.01,2013-09-05 00:07:00,
2013-09-04 17:12:00,96.3,55.8,27.11,NE,50,5.8,6.3,26,0.00,,---,0.00,VWS V13.01,2013-09-05 00:12:00,
2013-09-04 17:18:00,96.3,55.8,27.11,NE,51,4.0,5.4,26,0.00,,---,0.00,VWS V13.01,2013-09-05 00:18:00,
2013-09-04 17:23:00,96.3,55.8,27.11,ENE,72,3.6,5.8,26,0.00,,---,0.00,VWS V13.01,2013-09-05 00:23:00,
2013-09-04 17:28:00,96.1,55.7,27.11,ENE,65,5.4,5.4,26,0.00,,---,0.00,VWS V13.01,2013-09-05 00:28:00,
2013-09-04 17:34:00,96.1,55.7,27.11,East,93,3.6,4.0,26,0.00,,---,0.00,VWS V13.01,2013-09-05 00:34:00,
2013-09-04 17:39:00,95.9,55.5,27.11,East,84,0.0,2.7,26,0.00,,---,0.00,VWS V13.01,2013-09-05 00:39:00,
2013-09-04 17:44:00,95.7,55.4,27.11,NE,53,4.0,5.4,26,0.00,,---,0.00,VWS V13.01,2013-09-05 00:44:00,
2013-09-04 17:50:00,95.7,55.4,27.11,East,96,4.9,5.8,26,0.00,,---,0.00,VWS V13.01,2013-09-05 00:50:00,
2013-09-04 17:55:00,95.2,54.9,27.11,East,82,6.3,11.0,26,0.00,,---,0.00,VWS V13.01,2013-09-05 00:55:00,
2013-09-04 18:00:00,94.8,54.6,27.11,ENE,75,5.8,7.6,26,0.00,,---,0.00,VWS V13.01,2013-09-05 01:00:00,
2013-09-04 18:05:00,94.6,54.5,27.11,East,87,3.6,5.8,26,0.00,,---,0.00,VWS V13.01,2013-09-05 01:05:00,
2013-09-04 18:11:00,94.3,54.2,27.11,East,88,4.0,4.0,26,0.00,,---,0.00,VWS V13.01,2013-09-05 01:11:00,
2013-09-04 18:16:00,94.1,54.0,27.11,ENE,74,0.0,0.0,26,0.00,,---,0.00,VWS V13.01,2013-09-05 01:16:00,
2013-09-04 18:21:00,93.7,54.7,27.11,East,84,3.1,3.1,27,0.00,,---,0.00,VWS V13.01,2013-09-05 01:21:00,
2013-09-04 18:26:00,93.6,54.6,27.11,East,100,2.2,4.9,27,0.00,,---,0.00,VWS V13.01,2013-09-05 01:26:00,
2013-09-04 18:31:00,93.2,54.3,27.11,East,95,0.0,0.0,27,0.00,,---,0.00,VWS V13.01,2013-09-05 01:31:00,
2013-09-04 18:36:00,92.8,54.0,27.11,East,94,0.0,0.0,27,0.00,,---,0.00,VWS V13.01,2013-09-05 01:36:00,
2013-09-04 18:42:00,92.3,53.5,27.11,East,94,0.0,0.0,27,0.00,,---,0.00,VWS V13.01,2013-09-05 01:42:00,
2013-09-04 18:47:00,91.9,53.2,27.11,East,94,0.0,0.0,27,0.00,,---,0.00,VWS V13.01,2013-09-05 01:47:00,
2013-09-04 18:52:00,91.6,52.9,27.11,East,94,0.0,0.0,27,0.00,,---,0.00,VWS V13.01,2013-09-05 01:52:00,
2013-09-04 18:57:00,91.2,53.6,27.11,East,94,0.0,0.0,28,0.00,,---,0.00,VWS V13.01,2013-09-05 01:57:00,
2013-09-04 19:03:00,90.7,53.1,27.11,East,94,0.0,0.0,28,0.00,,---,0.00,VWS V13.01,2013-09-05 02:03:00,
2013-09-04 19:08:00,90.1,53.6,27.11,East,94,0.0,0.0,29,0.00,,---,0.00,VWS V13.01,2013-09-05 02:08:00,
2013-09-04 19:13:00,89.6,53.2,27.11,East,94,0.0,0.0,29,0.00,,---,0.00,VWS V13.01,2013-09-05 02:13:00,
2013-09-04 19:18:00,89.1,53.6,27.11,East,94,0.0,0.0,30,0.00,,---,0.00,VWS V13.01,2013-09-05 02:18:00,
2013-09-04 19:23:00,88.5,53.2,27.14,East,94,0.0,0.0,30,0.00,,---,0.00,VWS V13.01,2013-09-05 02:23:00,
2013-09-04 19:28:00,88.0,53.6,27.14,East,94,0.0,0.0,31,0.00,,---,0.00,VWS V13.01,2013-09-05 02:28:00,
2013-09-04 19:33:00,87.8,53.4,27.14,East,94,0.0,0.0,31,0.00,,---,0.00,VWS V13.01,2013-09-05 02:33:00,
2013-09-04 19:38:00,87.6,54.2,27.14,East,94,0.0,0.0,32,0.00,,---,0.00,VWS V13.01,2013-09-05 02:38:00,
2013-09-04 19:44:00,87.1,53.7,27.14,East,94,0.0,0.0,32,0.00,,---,0.00,VWS V13.01,2013-09-05 02:44:00,
2013-09-04 19:49:00,86.9,53.5,27.14,East,94,0.0,0.0,32,0.00,,---,0.00,VWS V13.01,2013-09-05 02:49:00,
2013-09-04 19:54:00,86.5,54.0,27.14,East,94,0.0,0.0,33,0.00,,---,0.00,VWS V13.01,2013-09-05 02:54:00,
2013-09-04 20:00:00,86.0,53.6,27.14,East,94,0.0,0.0,33,0.00,,---,0.00,VWS V13.01,2013-09-05 03:00:00,
2013-09-04 20:05:00,85.6,54.1,27.14,East,94,0.0,0.0,34,0.00,,---,0.00,VWS V13.01,2013-09-05 03:05:00,
2013-09-04 20:10:00,85.1,55.2,27.14,East,94,0.0,0.0,36,0.00,,---,0.00,VWS V13.01,2013-09-05 03:10:00,
2013-09-04 20:16:00,84.9,55.0,27.14,East,94,0.0,0.0,36,0.00,,---,0.00,VWS V13.01,2013-09-05 03:16:00,
2013-09-04 20:21:00,84.6,54.7,27.14,East,94,0.0,0.0,36,0.00,,---,0.00,VWS V13.01,2013-09-05 03:21:00,
2013-09-04 20:26:00,84.4,54.5,27.14,East,94,0.0,0.0,36,0.00,,---,0.00,VWS V13.01,2013-09-05 03:26:00,
2013-09-04 20:32:00,84.6,53.9,27.14,East,89,0.0,0.0,35,0.00,,---,0.00,VWS V13.01,2013-09-05 03:32:00,
2013-09-04 20:37:00,84.4,54.5,27.17,East,89,0.0,0.0,36,0.00,,---,0.00,VWS V13.01,2013-09-05 03:37:00,
2013-09-04 20:42:00,84.0,54.2,27.17,East,89,0.0,0.0,36,0.00,,---,0.00,VWS V13.01,2013-09-05 03:42:00,
2013-09-04 20:47:00,83.7,54.7,27.17,East,88,0.0,0.0,37,0.00,,---,0.00,VWS V13.01,2013-09-05 03:47:00,
2013-09-04 20:53:00,83.3,54.3,27.17,East,89,0.0,0.0,37,0.00,,---,0.00,VWS V13.01,2013-09-05 03:53:00,
2013-09-04 20:58:00,82.9,55.5,27.17,East,89,0.0,0.0,39,0.00,,---,0.00,VWS V13.01,2013-09-05 03:58:00,
2013-09-04 21:01:00,82.8,55.3,27.17,East,88,0.0,0.0,39,0.00,,---,0.00,VWS V13.01,2013-09-05 04:01:00,
2013-09-04 21:02:00,82.8,55.3,27.17,East,89,0.0,0.0,39,0.00,,---,0.00,VWS V13.01,2013-09-05 04:02:00,
2013-09-04 21:03:00,82.6,55.1,27.17,East,89,0.0,0.0,39,0.00,,---,0.00,VWS V13.01,2013-09-05 04:03:00,
2013-09-04 21:04:00,82.6,55.1,27.17,East,89,0.0,0.0,39,0.00,,---,0.00,VWS V13.01,2013-09-05 04:04:00,
2013-09-04 21:07:00,82.6,54.4,27.17,East,89,0.0,0.0,38,0.00,,---,0.00,VWS V13.01,2013-09-05 04:07:00,
2013-09-04 21:12:00,82.4,54.3,27.17,East,89,0.0,0.0,38,0.00,,---,0.00,VWS V13.01,2013-09-05 04:12:00,
2013-09-04 21:17:00,82.2,55.5,27.17,East,89,0.0,0.0,40,0.00,,---,0.00,VWS V13.01,2013-09-05 04:17:00,
2013-09-04 21:23:00,81.9,55.2,27.17,East,89,0.0,0.0,40,0.00,,---,0.00,VWS V13.01,2013-09-05 04:23:00,
2013-09-04 21:28:00,81.7,55.0,27.17,East,89,0.0,0.0,40,0.00,,---,0.00,VWS V13.01,2013-09-05 04:28:00,
2013-09-04 21:33:00,81.7,54.3,27.17,East,89,0.0,0.0,39,0.00,,---,0.00,VWS V13.01,2013-09-05 04:33:00,
2013-09-04 21:38:00,81.5,54.2,27.17,East,89,0.0,0.0,39,0.00,,---,0.00,VWS V13.01,2013-09-05 04:38:00,
2013-09-04 21:44:00,81.3,54.0,27.17,East,89,0.0,0.0,39,0.00,,---,0.00,VWS V13.01,2013-09-05 04:44:00,
2013-09-04 21:49:00,81.3,53.3,27.17,East,89,0.0,0.0,38,0.00,,---,0.00,VWS V13.01,2013-09-05 04:49:00,
2013-09-04 21:54:00,81.0,53.7,27.17,East,89,0.0,0.0,39,0.00,,---,0.00,VWS V13.01,2013-09-05 04:54:00,
2013-09-04 21:59:00,80.8,53.5,27.17,East,89,0.0,0.0,39,0.00,,---,0.00,VWS V13.01,2013-09-05 04:59:00,
2013-09-04 22:04:00,80.6,54.1,27.17,East,89,0.0,0.0,40,0.00,,---,0.00,VWS V13.01,2013-09-05 05:04:00,
2013-09-04 22:10:00,80.4,53.9,27.17,East,89,0.0,0.0,40,0.00,,---,0.00,VWS V13.01,2013-09-05 05:10:00,
2013-09-04 22:15:00,80.1,54.3,27.17,East,89,0.0,0.0,41,0.00,,---,0.00,VWS V13.01,2013-09-05 05:15:00,
2013-09-04 22:20:00,80.1,53.6,27.17,East,89,0.0,0.0,40,0.00,,---,0.00,VWS V13.01,2013-09-05 05:20:00,
2013-09-04 22:25:00,79.7,53.9,27.17,East,89,0.0,0.0,41,0.00,,---,0.00,VWS V13.01,2013-09-05 05:25:00,
2013-09-04 22:30:00,79.5,53.8,27.17,East,89,0.0,0.0,41,0.00,,---,0.00,VWS V13.01,2013-09-05 05:30:00,
2013-09-04 22:35:00,79.3,53.0,27.17,East,89,0.0,0.0,40,0.00,,---,0.00,VWS V13.01,2013-09-05 05:35:00,
2013-09-04 22:41:00,79.3,53.0,27.17,East,89,0.0,0.0,40,0.00,,---,0.00,VWS V13.01,2013-09-05 05:41:00,
2013-09-04 22:46:00,79.3,53.0,27.17,East,89,0.0,0.0,40,0.00,,---,0.00,VWS V13.01,2013-09-05 05:46:00,
2013-09-04 22:51:00,79.5,53.1,27.17,East,89,0.0,0.0,40,0.00,,---,0.00,VWS V13.01,2013-09-05 05:51:00,
2013-09-04 22:57:00,79.3,53.0,27.17,East,89,0.0,0.0,40,0.00,,---,0.00,VWS V13.01,2013-09-05 05:57:00,
2013-09-04 23:02:00,79.2,52.8,27.17,East,89,0.0,0.0,40,0.00,,---,0.00,VWS V13.01,2013-09-05 06:02:00,
2013-09-04 23:07:00,79.0,53.3,27.17,East,89,0.0,0.0,41,0.00,,---,0.00,VWS V13.01,2013-09-05 06:07:00,
2013-09-04 23:12:00,78.8,53.1,27.17,East,89,0.0,0.0,41,0.00,,---,0.00,VWS V13.01,2013-09-05 06:12:00,
2013-09-04 23:18:00,78.4,53.5,27.17,East,89,0.0,0.0,42,0.00,,---,0.00,VWS V13.01,2013-09-05 06:18:00,
2013-09-04 23:23:00,78.1,53.2,27.17,East,89,0.0,0.0,42,0.00,,---,0.00,VWS V13.01,2013-09-05 06:23:00,
2013-09-04 23:28:00,77.9,53.6,27.17,East,89,0.0,0.0,43,0.00,,---,0.00,VWS V13.01,2013-09-05 06:28:00,
2013-09-04 23:34:00,77.5,53.3,27.17,East,89,0.0,0.0,43,0.00,,---,0.00,VWS V13.01,2013-09-05 06:34:00,
2013-09-04 23:39:00,77.2,53.6,27.17,East,89,0.0,0.0,44,0.00,,---,0.00,VWS V13.01,2013-09-05 06:39:00,
2013-09-04 23:44:00,76.8,53.9,27.17,East,89,0.0,0.0,45,0.00,,---,0.00,VWS V13.01,2013-09-05 06:44:00,
2013-09-04 23:50:00,77.2,53.0,27.17,East,89,0.0,0.0,43,0.00,,---,0.00,VWS V13.01,2013-09-05 06:50:00,
2013-09-04 23:55:00,77.4,52.5,27.17,East,89,0.0,0.0,42,0.00,,---,0.00,VWS V13.01,2013-09-05 06:55:00,